sensor_id;sensor_type;location;lat;lon;timestamp;pressure;altitude;pressure_sealevel;temperature;humidity
42669;BME280;29384;42.028;21.388;2022-08-19T00:01:35;98159.53;;;23.28;67.82
42669;BME280;29384;42.028;21.388;2022-08-19T00:04:04;98165.34;;;23.18;66.88
42669;BME280;29384;42.028;21.388;2022-08-19T00:06:30;98153.47;;;23.03;66.30
42669;BME280;29384;42.028;21.388;2022-08-19T00:08:57;98165.25;;;23.02;66.18
42669;BME280;29384;42.028;21.388;2022-08-19T00:11:23;98155.81;;;23.04;65.94
42669;BME280;29384;42.028;21.388;2022-08-19T00:13:49;98155.94;;;23.08;66.75
42669;BME280;29384;42.028;21.388;2022-08-19T00:16:17;98148.91;;;23.03;67.41
42669;BME280;29384;42.028;21.388;2022-08-19T00:18:46;98156.91;;;22.91;67.86
42669;BME280;29384;42.028;21.388;2022-08-19T00:21:12;98155.03;;;22.91;67.71
42669;BME280;29384;42.028;21.388;2022-08-19T00:23:38;98156.28;;;22.94;67.52
42669;BME280;29384;42.028;21.388;2022-08-19T00:26:04;98168.72;;;23.02;67.46
42669;BME280;29384;42.028;21.388;2022-08-19T00:28:30;98162.69;;;23.05;67.76
42669;BME280;29384;42.028;21.388;2022-08-19T00:30:56;98159.03;;;22.85;68.45
42669;BME280;29384;42.028;21.388;2022-08-19T00:33:21;98171.16;;;22.83;68.51
42669;BME280;29384;42.028;21.388;2022-08-19T00:39:09;98166.06;;;22.65;68.51
42669;BME280;29384;42.028;21.388;2022-08-19T00:41:35;98159.47;;;22.75;68.65
42669;BME280;29384;42.028;21.388;2022-08-19T00:44:09;98165.16;;;22.74;69.50
42669;BME280;29384;42.028;21.388;2022-08-19T00:46:37;98161.47;;;22.78;69.76
42669;BME280;29384;42.028;21.388;2022-08-19T00:49:11;98157.47;;;22.84;69.24
42669;BME280;29384;42.028;21.388;2022-08-19T00:51:40;98156.59;;;22.93;68.52
42669;BME280;29384;42.028;21.388;2022-08-19T00:54:07;98159.81;;;22.98;68.42
42669;BME280;29384;42.028;21.388;2022-08-19T00:56:32;98154.81;;;22.97;68.86
42669;BME280;29384;42.028;21.388;2022-08-19T00:58:59;98159.91;;;22.89;68.78
42669;BME280;29384;42.028;21.388;2022-08-19T01:01:25;98154.16;;;22.75;69.70
42669;BME280;29384;42.028;21.388;2022-08-19T01:03:51;98152.38;;;22.67;69.64
42669;BME280;29384;42.028;21.388;2022-08-19T01:09:37;98152.16;;;22.48;70.51
42669;BME280;29384;42.028;21.388;2022-08-19T01:12:03;98150.81;;;22.41;71.42
42669;BME280;29384;42.028;21.388;2022-08-19T01:14:29;98160.91;;;22.36;72.08
42669;BME280;29384;42.028;21.388;2022-08-19T01:16:55;98150.25;;;22.36;71.94
42669;BME280;29384;42.028;21.388;2022-08-19T01:19:29;98155.53;;;22.11;72.38
42669;BME280;29384;42.028;21.388;2022-08-19T01:22:16;98149.38;;;22.19;71.94
42669;BME280;29384;42.028;21.388;2022-08-19T01:24:44;98147.91;;;22.22;72.20
42669;BME280;29384;42.028;21.388;2022-08-19T01:27:10;98144.28;;;22.27;72.22
42669;BME280;29384;42.028;21.388;2022-08-19T01:29:39;98156.44;;;22.15;73.02
42669;BME280;29384;42.028;21.388;2022-08-19T01:32:06;98158.31;;;22.15;73.43
42669;BME280;29384;42.028;21.388;2022-08-19T01:34:32;98153.25;;;22.34;72.82
42669;BME280;29384;42.028;21.388;2022-08-19T01:36:59;98151.72;;;22.46;72.31
42669;BME280;29384;42.028;21.388;2022-08-19T01:39:27;98142.16;;;22.45;71.19
42669;BME280;29384;42.028;21.388;2022-08-19T01:41:53;98142.72;;;22.38;70.24
42669;BME280;29384;42.028;21.388;2022-08-19T01:44:20;98146.28;;;22.30;70.77
42669;BME280;29384;42.028;21.388;2022-08-19T01:46:49;98146.59;;;22.28;71.51
42669;BME280;29384;42.028;21.388;2022-08-19T01:49:19;98139.81;;;22.18;70.97
42669;BME280;29384;42.028;21.388;2022-08-19T01:51:46;98136.88;;;22.11;71.25
42669;BME280;29384;42.028;21.388;2022-08-19T01:54:13;98131.13;;;22.09;71.15
42669;BME280;29384;42.028;21.388;2022-08-19T01:56:40;98127.69;;;22.09;71.35
42669;BME280;29384;42.028;21.388;2022-08-19T01:59:12;98128.34;;;22.06;71.91
42669;BME280;29384;42.028;21.388;2022-08-19T02:01:38;98129.00;;;22.03;72.38
42669;BME280;29384;42.028;21.388;2022-08-19T02:04:04;98122.53;;;21.91;72.47
42669;BME280;29384;42.028;21.388;2022-08-19T02:09:52;98128.34;;;21.72;73.25
42669;BME280;29384;42.028;21.388;2022-08-19T02:12:18;98126.81;;;21.71;73.71
42669;BME280;29384;42.028;21.388;2022-08-19T02:14:43;98129.75;;;21.58;74.24
42669;BME280;29384;42.028;21.388;2022-08-19T02:17:08;98121.59;;;21.63;74.29
42669;BME280;29384;42.028;21.388;2022-08-19T02:19:34;98126.94;;;21.75;74.04
42669;BME280;29384;42.028;21.388;2022-08-19T02:22:00;98122.38;;;21.76;73.15
42669;BME280;29384;42.028;21.388;2022-08-19T02:24:26;98126.84;;;21.84;72.97
42669;BME280;29384;42.028;21.388;2022-08-19T02:26:52;98111.19;;;21.70;73.33
42669;BME280;29384;42.028;21.388;2022-08-19T02:29:18;98125.50;;;21.78;73.31
42669;BME280;29384;42.028;21.388;2022-08-19T02:31:43;98136.47;;;21.76;73.45
42669;BME280;29384;42.028;21.388;2022-08-19T02:34:09;98134.44;;;21.73;73.60
42669;BME280;29384;42.028;21.388;2022-08-19T02:39:56;98140.91;;;21.51;74.92
42669;BME280;29384;42.028;21.388;2022-08-19T02:42:21;98136.06;;;21.53;75.71
42669;BME280;29384;42.028;21.388;2022-08-19T02:44:47;98139.50;;;21.54;74.75
42669;BME280;29384;42.028;21.388;2022-08-19T02:47:12;98143.16;;;21.49;74.29
42669;BME280;29384;42.028;21.388;2022-08-19T02:49:39;98147.69;;;21.48;75.42
42669;BME280;29384;42.028;21.388;2022-08-19T02:52:05;98145.22;;;21.43;75.64
42669;BME280;29384;42.028;21.388;2022-08-19T02:54:30;98145.91;;;21.32;76.40
42669;BME280;29384;42.028;21.388;2022-08-19T02:56:56;98152.66;;;21.29;76.20
42669;BME280;29384;42.028;21.388;2022-08-19T02:59:21;98154.94;;;21.39;76.49
42669;BME280;29384;42.028;21.388;2022-08-19T03:01:47;98159.81;;;21.37;76.74
42669;BME280;29384;42.028;21.388;2022-08-19T03:04:14;98159.22;;;21.32;77.50
42669;BME280;29384;42.028;21.388;2022-08-19T03:10:03;98161.50;;;21.42;74.70
42669;BME280;29384;42.028;21.388;2022-08-19T03:12:29;98154.19;;;21.30;75.32
42669;BME280;29384;42.028;21.388;2022-08-19T03:14:54;98163.50;;;21.24;76.65
42669;BME280;29384;42.028;21.388;2022-08-19T03:17:21;98163.03;;;21.22;77.23
42669;BME280;29384;42.028;21.388;2022-08-19T03:19:47;98165.22;;;21.20;77.26
42669;BME280;29384;42.028;21.388;2022-08-19T03:25:41;98168.28;;;21.31;77.35
42669;BME280;29384;42.028;21.388;2022-08-19T03:28:09;98173.78;;;21.25;77.31
42669;BME280;29384;42.028;21.388;2022-08-19T03:30:35;98176.13;;;21.27;78.35
42669;BME280;29384;42.028;21.388;2022-08-19T03:33:01;98166.84;;;21.12;78.14
42669;BME280;29384;42.028;21.388;2022-08-19T03:35:27;98168.03;;;21.03;77.29
42669;BME280;29384;42.028;21.388;2022-08-19T03:37:53;98165.38;;;21.03;77.61
42669;BME280;29384;42.028;21.388;2022-08-19T03:40:18;98173.00;;;21.04;77.79
42669;BME280;29384;42.028;21.388;2022-08-19T03:42:44;98169.84;;;20.81;79.10
42669;BME280;29384;42.028;21.388;2022-08-19T03:45:11;98173.72;;;20.92;79.45
42669;BME280;29384;42.028;21.388;2022-08-19T03:47:37;98177.72;;;20.98;79.28
42669;BME280;29384;42.028;21.388;2022-08-19T03:50:03;98172.09;;;21.00;79.08
42669;BME280;29384;42.028;21.388;2022-08-19T03:52:29;98184.88;;;21.07;78.02
42669;BME280;29384;42.028;21.388;2022-08-19T03:54:54;98183.03;;;20.98;77.20
42669;BME280;29384;42.028;21.388;2022-08-19T03:57:20;98189.00;;;20.95;77.72
42669;BME280;29384;42.028;21.388;2022-08-19T03:59:45;98194.69;;;20.85;78.48
42669;BME280;29384;42.028;21.388;2022-08-19T04:02:12;98187.59;;;20.68;80.02
42669;BME280;29384;42.028;21.388;2022-08-19T04:04:40;98195.63;;;20.51;81.31
42669;BME280;29384;42.028;21.388;2022-08-19T04:10:28;98204.09;;;20.74;81.53
42669;BME280;29384;42.028;21.388;2022-08-19T04:12:53;98206.38;;;20.93;80.46
42669;BME280;29384;42.028;21.388;2022-08-19T04:15:19;98201.97;;;20.97;79.98
42669;BME280;29384;42.028;21.388;2022-08-19T04:17:45;98207.22;;;21.06;79.32
42669;BME280;29384;42.028;21.388;2022-08-19T04:20:11;98217.56;;;21.07;79.37
42669;BME280;29384;42.028;21.388;2022-08-19T04:25:58;98223.41;;;21.21;79.32
42669;BME280;29384;42.028;21.388;2022-08-19T04:28:25;98217.22;;;21.09;80.15
42669;BME280;29384;42.028;21.388;2022-08-19T04:30:52;98224.75;;;21.36;80.04
42669;BME280;29384;42.028;21.388;2022-08-19T04:33:21;98219.91;;;21.38;79.54
42669;BME280;29384;42.028;21.388;2022-08-19T04:35:49;98228.28;;;21.49;78.66
42669;BME280;29384;42.028;21.388;2022-08-19T04:38:16;98226.91;;;21.64;78.00
42669;BME280;29384;42.028;21.388;2022-08-19T04:40:49;98234.50;;;21.74;77.79
42669;BME280;29384;42.028;21.388;2022-08-19T04:43:35;98236.50;;;21.98;76.40
42669;BME280;29384;42.028;21.388;2022-08-19T04:46:08;98228.34;;;22.15;76.78
42669;BME280;29384;42.028;21.388;2022-08-19T04:48:36;98225.84;;;22.31;76.18
42669;BME280;29384;42.028;21.388;2022-08-19T04:51:06;98229.56;;;22.51;74.67
42669;BME280;29384;42.028;21.388;2022-08-19T04:53:33;98228.91;;;22.66;75.06
42669;BME280;29384;42.028;21.388;2022-08-19T04:56:06;98238.88;;;22.57;75.06
42669;BME280;29384;42.028;21.388;2022-08-19T04:58:32;98242.00;;;22.59;75.86
42669;BME280;29384;42.028;21.388;2022-08-19T05:00:58;98234.69;;;22.69;75.71
42669;BME280;29384;42.028;21.388;2022-08-19T05:03:25;98231.00;;;22.73;75.59
42669;BME280;29384;42.028;21.388;2022-08-19T05:05:51;98236.50;;;23.01;75.28
42669;BME280;29384;42.028;21.388;2022-08-19T05:08:19;98238.78;;;23.27;74.65
42669;BME280;29384;42.028;21.388;2022-08-19T05:10:50;98239.31;;;23.45;73.55
42669;BME280;29384;42.028;21.388;2022-08-19T05:13:18;98244.13;;;23.80;71.57
42669;BME280;29384;42.028;21.388;2022-08-19T05:15:53;98241.91;;;24.10;69.95
42669;BME280;29384;42.028;21.388;2022-08-19T05:18:19;98246.91;;;24.40;66.94
42669;BME280;29384;42.028;21.388;2022-08-19T05:21:07;98246.22;;;24.59;64.78
42669;BME280;29384;42.028;21.388;2022-08-19T05:23:53;98246.03;;;24.51;65.12
42669;BME280;29384;42.028;21.388;2022-08-19T05:26:19;98246.31;;;24.62;65.51
42669;BME280;29384;42.028;21.388;2022-08-19T05:28:44;98253.47;;;24.90;64.29
42669;BME280;29384;42.028;21.388;2022-08-19T05:31:09;98258.19;;;25.12;62.46
42669;BME280;29384;42.028;21.388;2022-08-19T05:33:35;98249.38;;;25.27;62.26
42669;BME280;29384;42.028;21.388;2022-08-19T05:36:02;98246.88;;;25.54;60.35
42669;BME280;29384;42.028;21.388;2022-08-19T05:38:28;98249.91;;;25.72;60.33
42669;BME280;29384;42.028;21.388;2022-08-19T05:40:55;98248.75;;;25.89;59.29
42669;BME280;29384;42.028;21.388;2022-08-19T05:43:21;98250.16;;;26.02;59.92
42669;BME280;29384;42.028;21.388;2022-08-19T05:45:46;98248.25;;;26.03;60.64
42669;BME280;29384;42.028;21.388;2022-08-19T05:48:12;98239.81;;;26.23;60.50
42669;BME280;29384;42.028;21.388;2022-08-19T05:50:40;98249.25;;;26.37;58.63
42669;BME280;29384;42.028;21.388;2022-08-19T05:56:27;98243.38;;;26.74;56.48
42669;BME280;29384;42.028;21.388;2022-08-19T05:58:53;98243.44;;;26.77;56.33
42669;BME280;29384;42.028;21.388;2022-08-19T06:01:19;98246.66;;;26.86;55.52
42669;BME280;29384;42.028;21.388;2022-08-19T06:03:45;98247.81;;;26.89;55.19
42669;BME280;29384;42.028;21.388;2022-08-19T06:06:12;98260.41;;;26.85;55.24
42669;BME280;29384;42.028;21.388;2022-08-19T06:08:39;98254.69;;;26.86;55.63
42669;BME280;29384;42.028;21.388;2022-08-19T06:13:41;98258.69;;;27.23;55.21
42669;BME280;29384;42.028;21.388;2022-08-19T06:16:06;98256.00;;;27.23;54.57
42669;BME280;29384;42.028;21.388;2022-08-19T06:18:32;98262.69;;;27.32;53.44
42669;BME280;29384;42.028;21.388;2022-08-19T06:20:58;98254.94;;;27.57;53.22
42669;BME280;29384;42.028;21.388;2022-08-19T06:26:47;98260.69;;;27.86;52.16
42669;BME280;29384;42.028;21.388;2022-08-19T06:29:15;98268.91;;;28.00;50.17
42669;BME280;29384;42.028;21.388;2022-08-19T06:31:47;98271.75;;;28.15;50.13
42669;BME280;29384;42.028;21.388;2022-08-19T06:34:15;98273.28;;;28.16;50.27
42669;BME280;29384;42.028;21.388;2022-08-19T06:36:43;98275.97;;;28.16;49.76
42669;BME280;29384;42.028;21.388;2022-08-19T06:39:12;98266.94;;;27.97;49.71
42669;BME280;29384;42.028;21.388;2022-08-19T06:41:41;98268.28;;;28.14;49.48
42669;BME280;29384;42.028;21.388;2022-08-19T06:44:07;98265.16;;;28.08;49.63
42669;BME280;29384;42.028;21.388;2022-08-19T06:46:33;98266.94;;;28.31;49.05
42669;BME280;29384;42.028;21.388;2022-08-19T06:49:00;98268.69;;;28.53;48.52
42669;BME280;29384;42.028;21.388;2022-08-19T06:51:26;98268.41;;;28.66;47.90
42669;BME280;29384;42.028;21.388;2022-08-19T06:53:54;98267.69;;;28.72;47.98
42669;BME280;29384;42.028;21.388;2022-08-19T06:56:27;98257.06;;;28.90;46.86
42669;BME280;29384;42.028;21.388;2022-08-19T06:59:11;98262.63;;;29.12;45.56
42669;BME280;29384;42.028;21.388;2022-08-19T07:01:40;98257.69;;;29.21;45.65
42669;BME280;29384;42.028;21.388;2022-08-19T07:04:07;98254.16;;;29.10;44.99
42669;BME280;29384;42.028;21.388;2022-08-19T07:06:34;98258.00;;;29.05;45.98
42669;BME280;29384;42.028;21.388;2022-08-19T07:09:00;98260.44;;;29.32;44.51
42669;BME280;29384;42.028;21.388;2022-08-19T07:11:26;98256.66;;;29.47;44.66
42669;BME280;29384;42.028;21.388;2022-08-19T07:13:52;98261.31;;;29.50;44.35
42669;BME280;29384;42.028;21.388;2022-08-19T07:16:19;98249.50;;;29.69;44.80
42669;BME280;29384;42.028;21.388;2022-08-19T07:18:48;98257.22;;;29.74;44.52
42669;BME280;29384;42.028;21.388;2022-08-19T07:21:21;98255.25;;;29.64;44.27
42669;BME280;29384;42.028;21.388;2022-08-19T07:27:08;98264.97;;;29.86;44.18
42669;BME280;29384;42.028;21.388;2022-08-19T07:29:35;98254.59;;;29.99;44.52
42669;BME280;29384;42.028;21.388;2022-08-19T07:32:02;98250.44;;;30.23;44.84
42669;BME280;29384;42.028;21.388;2022-08-19T07:34:29;98256.25;;;30.32;43.69
42669;BME280;29384;42.028;21.388;2022-08-19T07:36:55;98255.47;;;30.42;43.76
42669;BME280;29384;42.028;21.388;2022-08-19T07:39:27;98262.00;;;30.34;41.98
42669;BME280;29384;42.028;21.388;2022-08-19T07:41:54;98258.94;;;30.32;43.04
42669;BME280;29384;42.028;21.388;2022-08-19T07:44:20;98251.63;;;30.29;43.50
42669;BME280;29384;42.028;21.388;2022-08-19T07:46:49;98256.63;;;30.48;43.39
42669;BME280;29384;42.028;21.388;2022-08-19T07:49:16;98253.94;;;30.63;43.69
42669;BME280;29384;42.028;21.388;2022-08-19T07:51:47;98254.72;;;30.88;42.84
42669;BME280;29384;42.028;21.388;2022-08-19T07:54:13;98258.59;;;30.77;41.97
42669;BME280;29384;42.028;21.388;2022-08-19T07:56:39;98248.16;;;30.46;42.49
42669;BME280;29384;42.028;21.388;2022-08-19T07:59:05;98249.69;;;30.69;42.38
42669;BME280;29384;42.028;21.388;2022-08-19T08:01:30;98242.03;;;30.89;42.30
42669;BME280;29384;42.028;21.388;2022-08-19T08:03:57;98247.78;;;30.80;40.30
42669;BME280;29384;42.028;21.388;2022-08-19T08:06:42;98243.16;;;30.95;41.92
42669;BME280;29384;42.028;21.388;2022-08-19T08:12:48;98236.22;;;30.76;40.28
42669;BME280;29384;42.028;21.388;2022-08-19T08:15:16;98233.13;;;30.67;40.80
42669;BME280;29384;42.028;21.388;2022-08-19T08:17:43;98234.28;;;30.87;41.00
42669;BME280;29384;42.028;21.388;2022-08-19T08:20:09;98223.88;;;30.97;41.17
42669;BME280;29384;42.028;21.388;2022-08-19T08:22:35;98223.44;;;31.12;39.97
42669;BME280;29384;42.028;21.388;2022-08-19T08:25:21;98217.63;;;31.35;39.38
42669;BME280;29384;42.028;21.388;2022-08-19T08:27:48;98219.88;;;31.48;38.62
42669;BME280;29384;42.028;21.388;2022-08-19T08:30:23;98229.09;;;31.61;38.60
42669;BME280;29384;42.028;21.388;2022-08-19T08:32:49;98222.56;;;31.55;38.69
42669;BME280;29384;42.028;21.388;2022-08-19T08:35:19;98223.03;;;31.32;39.17
42669;BME280;29384;42.028;21.388;2022-08-19T08:37:46;98217.63;;;31.25;40.39
42669;BME280;29384;42.028;21.388;2022-08-19T08:40:20;98229.25;;;31.11;40.13
42669;BME280;29384;42.028;21.388;2022-08-19T08:43:23;98216.06;;;31.24;42.87
42669;BME280;29384;42.028;21.388;2022-08-19T08:48:46;98218.28;;;31.64;40.43
42669;BME280;29384;42.028;21.388;2022-08-19T08:51:18;98204.75;;;31.64;42.73
42669;BME280;29384;42.028;21.388;2022-08-19T08:53:49;98204.03;;;31.57;40.43
42669;BME280;29384;42.028;21.388;2022-08-19T08:56:16;98210.63;;;31.49;40.46
42669;BME280;29384;42.028;21.388;2022-08-19T08:58:51;98202.03;;;31.68;41.95
42669;BME280;29384;42.028;21.388;2022-08-19T09:01:19;98195.75;;;31.93;42.20
42669;BME280;29384;42.028;21.388;2022-08-19T09:03:46;98206.06;;;32.12;40.55
42669;BME280;29384;42.028;21.388;2022-08-19T09:09:05;98195.00;;;31.88;37.90
42669;BME280;29384;42.028;21.388;2022-08-19T09:12:12;98191.09;;;31.97;38.78
42669;BME280;29384;42.028;21.388;2022-08-19T09:14:58;98186.50;;;31.90;38.92
42669;BME280;29384;42.028;21.388;2022-08-19T09:17:28;98178.69;;;32.03;38.77
42669;BME280;29384;42.028;21.388;2022-08-19T09:25:47;98175.88;;;32.21;37.90
42669;BME280;29384;42.028;21.388;2022-08-19T09:28:12;98175.81;;;32.28;37.67
42669;BME280;29384;42.028;21.388;2022-08-19T09:30:40;98177.78;;;32.24;37.70
42669;BME280;29384;42.028;21.388;2022-08-19T09:33:06;98172.22;;;32.45;38.36
42669;BME280;29384;42.028;21.388;2022-08-19T09:35:32;98161.28;;;32.56;37.05
42669;BME280;29384;42.028;21.388;2022-08-19T09:41:22;98155.84;;;32.59;35.81
42669;BME280;29384;42.028;21.388;2022-08-19T09:43:51;98158.19;;;32.54;35.70
42669;BME280;29384;42.028;21.388;2022-08-19T09:46:18;98150.09;;;32.54;36.34
42669;BME280;29384;42.028;21.388;2022-08-19T09:48:45;98154.41;;;32.48;35.49
42669;BME280;29384;42.028;21.388;2022-08-19T09:51:16;98152.06;;;32.50;34.95
42669;BME280;29384;42.028;21.388;2022-08-19T09:57:03;98139.41;;;32.77;37.70
42669;BME280;29384;42.028;21.388;2022-08-19T09:59:29;98135.44;;;32.85;35.48
42669;BME280;29384;42.028;21.388;2022-08-19T10:01:55;98139.69;;;32.90;35.05
42669;BME280;29384;42.028;21.388;2022-08-19T10:04:21;98127.28;;;32.89;35.21
42669;BME280;29384;42.028;21.388;2022-08-19T10:06:48;98122.25;;;32.91;35.64
42669;BME280;29384;42.028;21.388;2022-08-19T10:12:36;98110.63;;;32.94;37.66
42669;BME280;29384;42.028;21.388;2022-08-19T10:15:04;98097.44;;;32.96;35.45
42669;BME280;29384;42.028;21.388;2022-08-19T10:17:31;98104.25;;;33.12;34.30
42669;BME280;29384;42.028;21.388;2022-08-19T10:19:58;98104.28;;;33.08;34.33
42669;BME280;29384;42.028;21.388;2022-08-19T10:22:24;98096.97;;;33.05;34.67
42669;BME280;29384;42.028;21.388;2022-08-19T10:24:49;98097.41;;;33.00;34.84
42669;BME280;29384;42.028;21.388;2022-08-19T10:27:15;98085.66;;;33.10;34.72
42669;BME280;29384;42.028;21.388;2022-08-19T10:29:41;98088.09;;;33.04;34.04
42669;BME280;29384;42.028;21.388;2022-08-19T10:32:08;98078.50;;;32.96;34.24
42669;BME280;29384;42.028;21.388;2022-08-19T10:34:35;98081.09;;;33.03;33.98
42669;BME280;29384;42.028;21.388;2022-08-19T10:37:02;98070.59;;;33.09;36.36
42669;BME280;29384;42.028;21.388;2022-08-19T10:42:49;98048.31;;;33.25;37.18
42669;BME280;29384;42.028;21.388;2022-08-19T10:45:15;98052.53;;;33.29;36.36
42669;BME280;29384;42.028;21.388;2022-08-19T10:47:41;98053.28;;;33.30;33.86
42669;BME280;29384;42.028;21.388;2022-08-19T10:50:07;98055.19;;;33.33;34.47
42669;BME280;29384;42.028;21.388;2022-08-19T10:52:51;98045.06;;;33.37;34.23
42669;BME280;29384;42.028;21.388;2022-08-19T10:55:21;98048.00;;;33.46;33.48
42669;BME280;29384;42.028;21.388;2022-08-19T10:58:17;98046.53;;;33.42;33.44
42669;BME280;29384;42.028;21.388;2022-08-19T11:00:55;98040.41;;;33.38;33.76
42669;BME280;29384;42.028;21.388;2022-08-19T11:03:21;98031.97;;;33.32;34.36
42669;BME280;29384;42.028;21.388;2022-08-19T11:05:57;98031.84;;;33.39;34.56
42669;BME280;29384;42.028;21.388;2022-08-19T11:08:23;98026.84;;;33.38;33.30
42669;BME280;29384;42.028;21.388;2022-08-19T11:10:53;98035.41;;;33.36;31.98
42669;BME280;29384;42.028;21.388;2022-08-19T11:13:30;98028.91;;;33.30;31.72
42669;BME280;29384;42.028;21.388;2022-08-19T11:15:57;98025.88;;;33.24;32.51
42669;BME280;29384;42.028;21.388;2022-08-19T11:18:23;98018.13;;;33.26;33.21
42669;BME280;29384;42.028;21.388;2022-08-19T11:20:49;98009.50;;;33.31;35.49
42669;BME280;29384;42.028;21.388;2022-08-19T11:23:14;98009.00;;;33.40;32.79
42669;BME280;29384;42.028;21.388;2022-08-19T11:25:40;98004.09;;;33.59;31.87
42669;BME280;29384;42.028;21.388;2022-08-19T11:28:05;98006.50;;;33.53;30.75
42669;BME280;29384;42.028;21.388;2022-08-19T11:30:30;97999.94;;;33.54;31.59
42669;BME280;29384;42.028;21.388;2022-08-19T11:32:57;97996.09;;;33.51;30.86
42669;BME280;29384;42.028;21.388;2022-08-19T11:35:22;97979.47;;;33.46;30.59
42669;BME280;29384;42.028;21.388;2022-08-19T11:37:48;97979.53;;;33.42;31.25
42669;BME280;29384;42.028;21.388;2022-08-19T11:40:14;97976.78;;;33.46;32.54
42669;BME280;29384;42.028;21.388;2022-08-19T11:42:39;97977.06;;;33.55;31.00
42669;BME280;29384;42.028;21.388;2022-08-19T11:45:21;97966.59;;;33.57;31.79
42669;BME280;29384;42.028;21.388;2022-08-19T11:47:47;97966.47;;;33.64;33.49
42669;BME280;29384;42.028;21.388;2022-08-19T11:50:14;97957.00;;;33.72;30.85
42669;BME280;29384;42.028;21.388;2022-08-19T11:52:40;97966.22;;;33.78;31.27
42669;BME280;29384;42.028;21.388;2022-08-19T11:58:27;97949.81;;;33.86;31.83
42669;BME280;29384;42.028;21.388;2022-08-19T12:00:52;97956.47;;;33.81;31.10
42669;BME280;29384;42.028;21.388;2022-08-19T12:03:18;97955.50;;;33.91;31.66
42669;BME280;29384;42.028;21.388;2022-08-19T12:05:45;97951.22;;;33.94;30.34
42669;BME280;29384;42.028;21.388;2022-08-19T12:08:11;97939.72;;;33.86;32.49
42669;BME280;29384;42.028;21.388;2022-08-19T12:10:38;97940.13;;;33.85;31.55
42669;BME280;29384;42.028;21.388;2022-08-19T12:13:04;97942.72;;;33.92;30.39
42669;BME280;29384;42.028;21.388;2022-08-19T12:15:35;97938.72;;;34.00;30.67
42669;BME280;29384;42.028;21.388;2022-08-19T12:18:00;97928.50;;;34.08;29.66
42669;BME280;29384;42.028;21.388;2022-08-19T12:20:26;97944.50;;;34.22;29.23
42669;BME280;29384;42.028;21.388;2022-08-19T12:22:51;97944.63;;;34.35;28.92
42669;BME280;29384;42.028;21.388;2022-08-19T12:28:39;97933.03;;;34.14;28.49
42669;BME280;29384;42.028;21.388;2022-08-19T12:31:05;97929.28;;;34.08;29.03
42669;BME280;29384;42.028;21.388;2022-08-19T12:33:31;97921.56;;;34.07;29.66
42669;BME280;29384;42.028;21.388;2022-08-19T12:36:01;97917.78;;;34.20;29.06
42669;BME280;29384;42.028;21.388;2022-08-19T12:38:28;97923.78;;;34.32;28.42
42669;BME280;29384;42.028;21.388;2022-08-19T12:40:54;97917.72;;;34.24;28.80
42669;BME280;29384;42.028;21.388;2022-08-19T12:43:19;97916.25;;;34.19;29.76
42669;BME280;29384;42.028;21.388;2022-08-19T12:45:46;97902.69;;;34.19;29.28
42669;BME280;29384;42.028;21.388;2022-08-19T12:48:11;97907.34;;;34.19;30.49
42669;BME280;29384;42.028;21.388;2022-08-19T12:50:41;97908.03;;;34.23;28.62
42669;BME280;29384;42.028;21.388;2022-08-19T12:53:07;97895.81;;;34.15;28.88
42669;BME280;29384;42.028;21.388;2022-08-19T12:55:33;97896.22;;;34.13;29.68
42669;BME280;29384;42.028;21.388;2022-08-19T12:57:59;97887.53;;;34.22;29.22
42669;BME280;29384;42.028;21.388;2022-08-19T13:00:27;97897.13;;;34.26;29.88
42669;BME280;29384;42.028;21.388;2022-08-19T13:02:53;97890.03;;;34.33;29.73
42669;BME280;29384;42.028;21.388;2022-08-19T13:05:21;97892.31;;;34.34;29.81
42669;BME280;29384;42.028;21.388;2022-08-19T13:07:49;97889.19;;;34.36;30.94
42669;BME280;29384;42.028;21.388;2022-08-19T13:13:37;97865.06;;;34.21;33.51
42669;BME280;29384;42.028;21.388;2022-08-19T13:16:02;97861.50;;;34.24;33.05
42669;BME280;29384;42.028;21.388;2022-08-19T13:18:28;97864.91;;;34.29;31.14
42669;BME280;29384;42.028;21.388;2022-08-19T13:20:54;97870.66;;;34.31;30.34
42669;BME280;29384;42.028;21.388;2022-08-19T13:23:19;97864.25;;;34.41;30.02
42669;BME280;29384;42.028;21.388;2022-08-19T13:25:53;97868.31;;;34.33;30.68
42669;BME280;29384;42.028;21.388;2022-08-19T13:28:20;97864.91;;;34.29;30.89
42669;BME280;29384;42.028;21.388;2022-08-19T13:30:47;97877.66;;;34.32;31.29
42669;BME280;29384;42.028;21.388;2022-08-19T13:33:31;97869.53;;;34.48;30.21
42669;BME280;29384;42.028;21.388;2022-08-19T13:35:59;97865.00;;;34.41;30.66
42669;BME280;29384;42.028;21.388;2022-08-19T13:45:20;97868.06;;;34.43;30.50
42669;BME280;29384;42.028;21.388;2022-08-19T13:47:48;97863.91;;;34.39;30.59
42669;BME280;29384;42.028;21.388;2022-08-19T13:50:25;97852.84;;;34.30;30.44
42669;BME280;29384;42.028;21.388;2022-08-19T13:52:52;97846.06;;;34.21;31.62
42669;BME280;29384;42.028;21.388;2022-08-19T13:55:18;97847.22;;;34.20;31.64
42669;BME280;29384;42.028;21.388;2022-08-19T13:57:45;97837.56;;;34.19;31.53
42669;BME280;29384;42.028;21.388;2022-08-19T14:00:16;97837.56;;;34.19;31.29
42669;BME280;29384;42.028;21.388;2022-08-19T14:02:44;97834.38;;;34.41;31.33
42669;BME280;29384;42.028;21.388;2022-08-19T14:05:12;97838.19;;;34.80;29.92
42669;BME280;29384;42.028;21.388;2022-08-19T14:07:38;97835.31;;;34.70;30.53
42669;BME280;29384;42.028;21.388;2022-08-19T14:10:06;97833.44;;;34.67;30.61
42669;BME280;29384;42.028;21.388;2022-08-19T14:12:32;97832.78;;;34.63;30.16
42669;BME280;29384;42.028;21.388;2022-08-19T14:14:58;97826.09;;;34.48;30.73
42669;BME280;29384;42.028;21.388;2022-08-19T14:17:24;97818.78;;;34.45;30.62
42669;BME280;29384;42.028;21.388;2022-08-19T14:19:56;97823.53;;;34.41;31.65